Time;durP1;ratioP1;P1;durP2;ratioP2;P2;SDS_P1;SDS_P2;PMS_P1;PMS_P2;Temp;Humidity;BMP_temperature;BMP_pressure;BME280_temperature;BME280_humidity;BME280_pressure;Samples;Min_cycle;Max_cycle;Signal;HPM_P1;HPM_P2
2023/03/20 00:01:13;;;;;;;;;;;;;;;20.57;54.68;100887.01;2326613;75;22287;-81
2023/03/20 00:04:18;;;;;;;;;;;;;;;20.63;54.56;100879.55;2386151;74;50708;-81
2023/03/20 00:07:21;;;;;;;;;;;;;;;20.68;54.42;100885.67;2357845;73;51008;-80
2023/03/20 00:10:28;;;;;;;;;;;;;;;20.68;54.35;100885.67;2372171;74;51505;-81
2023/03/20 00:13:36;;;;;;;;;;;;;;;20.68;54.32;100887.02;2358561;75;50750;-81
2023/03/20 00:16:38;;;;;;;;;;;;;;;20.64;54.36;100882.02;2361649;73;22348;-81
2023/03/20 00:19:44;;;;;;;;;;;;;;;20.62;54.38;100881.89;2385683;74;52753;-81
2023/03/20 00:22:48;;;;;;;;;;;;;;;20.60;54.44;100882.10;2347937;74;52376;-81
2023/03/20 00:25:52;;;;;;;;;;;;;;;20.58;54.51;100884.14;2357168;74;50434;-81
2023/03/20 00:28:55;;;;;;;;;;;;;;;20.54;54.58;100880.16;2371808;73;50513;-81
2023/03/20 00:31:58;;;;;;;;;;;;;;;20.54;54.70;100884.67;2362456;73;50478;-81
2023/03/20 00:35:01;;;;;;;;;;;;;;;20.57;54.71;100882.45;2332256;75;51448;-81
2023/03/20 00:38:03;;;;;;;;;;;;;;;20.63;54.60;100884.92;2365174;73;22363;-81
2023/03/20 00:41:06;;;;;;;;;;;;;;;20.65;54.45;100875.64;2358473;75;51461;-78
2023/03/20 00:44:10;;;;;;;;;;;;;;;20.65;54.42;100870.27;2371899;73;51464;-81
2023/03/20 00:47:13;;;;;;;;;;;;;;;20.65;54.40;100865.37;2396277;74;50202;-80
2023/03/20 00:50:16;;;;;;;;;;;;;;;20.63;54.39;100862.06;2399898;74;50680;-80
2023/03/20 00:53:22;;;;;;;;;;;;;;;20.61;54.42;100859.55;2397861;73;51575;-81
2023/03/20 00:56:30;;;;;;;;;;;;;;;20.59;54.47;100862.12;2384905;74;22417;-81
2023/03/20 00:59:33;;;;;;;;;;;;;;;20.56;54.54;100868.70;2349224;74;50697;-81
2023/03/20 01:02:35;;;;;;;;;;;;;;;20.54;54.55;100866.71;2325496;75;50453;-81
2023/03/20 01:05:38;;;;;;;;;;;;;;;20.53;54.68;100860.17;2359098;73;50726;-81
2023/03/20 01:08:40;;;;;;;;;;;;;;;20.58;54.66;100867.19;2358190;74;50792;-81
2023/03/20 01:11:47;;;;;;;;;;;;;;;20.62;54.55;100870.62;2356948;74;51455;-81
2023/03/20 01:14:51;;;;;;;;;;;;;;;20.65;54.40;100868.92;2389934;74;22266;-81
2023/03/20 01:17:54;;;;;;;;;;;;;;;20.66;54.36;100869.74;2390658;73;24019;-80
2023/03/20 01:20:57;;;;;;;;;;;;;;;20.64;54.37;100867.23;2358127;74;52033;-81
2023/03/20 01:23:59;;;;;;;;;;;;;;;20.62;54.35;100857.17;2344980;74;49991;-81
2023/03/20 01:27:04;;;;;;;;;;;;;;;20.60;54.38;100867.31;2358611;75;51881;-80
2023/03/20 01:30:10;;;;;;;;;;;;;;;20.58;54.47;100865.84;2386256;73;50828;-81
2023/03/20 01:33:13;;;;;;;;;;;;;;;20.56;54.46;100869.22;2353170;73;50632;-81
2023/03/20 01:36:17;;;;;;;;;;;;;;;20.53;54.51;100878.47;2372479;74;50479;-80
2023/03/20 01:39:20;;;;;;;;;;;;;;;20.52;54.66;100868.72;2358369;75;50865;-81
2023/03/20 01:42:27;;;;;;;;;;;;;;;20.55;54.68;100875.12;2339392;74;51611;-81
2023/03/20 01:45:34;;;;;;;;;;;;;;;20.61;54.57;100877.03;2372963;73;21656;-82
2023/03/20 01:48:38;;;;;;;;;;;;;;;20.66;54.38;100875.13;2359827;73;51562;-81
2023/03/20 01:51:41;;;;;;;;;;;;;;;20.69;54.26;100876.59;2367788;74;50459;-81
2023/03/20 01:54:43;;;;;;;;;;;;;;;20.68;54.26;100871.73;2336035;75;50367;-82
2023/03/20 01:57:46;;;;;;;;;;;;;;;20.66;54.27;100876.47;2359931;73;51481;-81
2023/03/20 02:00:50;;;;;;;;;;;;;;;20.63;54.29;100866.92;2334388;75;51106;-80
2023/03/20 02:03:56;;;;;;;;;;;;;;;20.61;54.35;100870.31;2362394;73;50448;-80
2023/03/20 02:06:59;;;;;;;;;;;;;;;20.59;54.36;100869.66;2373936;74;22195;-81
2023/03/20 02:10:04;;;;;;;;;;;;;;;20.56;54.40;100874.08;2358127;75;50358;-78
2023/03/20 02:13:09;;;;;;;;;;;;;;;20.54;54.52;100874.78;2358509;73;22350;-81
2023/03/20 02:16:47;;;;;;;;;;;;;;;20.56;54.56;100890.73;2382271;74;50139;-80
2023/03/20 02:19:51;;;;;;;;;;;;;;;20.61;54.46;100885.09;2379434;73;50440;-81
2023/03/20 02:22:54;;;;;;;;;;;;;;;20.69;54.29;100886.01;2358109;73;50817;-81
2023/03/20 02:26:05;;;;;;;;;;;;;;;20.71;54.15;100887.48;2372351;73;50778;-79
2023/03/20 02:29:27;;;;;;;;;;;;;;;20.70;54.16;100883.63;2358223;75;50901;-80
2023/03/20 02:32:48;;;;;;;;;;;;;;;20.69;54.14;100882.80;2358478;75;51558;-80
2023/03/20 02:36:08;;;;;;;;;;;;;;;20.65;54.19;100878.33;2364618;74;50453;-80
2023/03/20 02:39:16;;;;;;;;;;;;;;;20.64;54.20;100873.95;2358209;74;52509;-80
2023/03/20 02:42:28;;;;;;;;;;;;;;;20.63;54.25;100878.20;2359667;74;22832;-80
2023/03/20 02:45:31;;;;;;;;;;;;;;;20.59;54.27;100875.04;2364009;73;50638;-80
2023/03/20 02:48:49;;;;;;;;;;;;;;;20.56;54.42;100872.73;2360135;73;51539;-80
2023/03/20 02:51:54;;;;;;;;;;;;;;;20.58;54.45;100881.45;2333914;75;50653;-80
2023/03/20 02:55:14;;;;;;;;;;;;;;;20.63;54.33;100880.37;2371520;73;22843;-80
2023/03/20 02:58:17;;;;;;;;;;;;;;;20.70;54.19;100880.42;2396120;73;23744;-80
2023/03/20 03:01:39;;;;;;;;;;;;;;;20.69;54.08;100886.83;2382655;74;52064;-81
2023/03/20 03:04:45;;;;;;;;;;;;;;;20.69;54.09;100888.70;2382316;74;23093;-81
2023/03/20 03:07:48;;;;;;;;;;;;;;;20.66;54.13;100885.36;2356961;75;51532;-81
2023/03/20 03:10:55;;;;;;;;;;;;;;;20.63;54.18;100874.99;2348355;74;51235;-81
2023/03/20 03:13:58;;;;;;;;;;;;;;;20.62;54.20;100883.23;2391596;73;22388;-81
2023/03/20 03:20:05;;;;;;;;;;;;;;;20.56;54.28;100879.98;2294460;75;22574;-81
2023/03/20 03:23:12;;;;;;;;;;;;;;;20.56;54.37;100879.98;2312931;76;50921;-82
2023/03/20 03:29:53;;;;;;;;;;;;;;;20.63;54.27;100887.09;2310828;75;24428;-81
2023/03/20 03:33:15;;;;;;;;;;;;;;;20.69;54.08;100884.66;2310007;76;50983;-80
2023/03/20 03:36:36;;;;;;;;;;;;;;;20.67;54.06;100888.88;2279990;76;22391;-80
2023/03/20 03:39:59;;;;;;;;;;;;;;;20.65;54.06;100889.08;2279039;78;50503;-80
2023/03/20 03:43:04;;;;;;;;;;;;;;;20.64;54.09;100887.92;2279626;78;22392;-81
2023/03/20 03:46:24;;;;;;;;;;;;;;;20.61;54.13;100889.13;2331504;75;50569;-81
2023/03/20 03:49:36;;;;;;;;;;;;;;;20.58;54.18;100886.00;2340063;76;52118;-80
2023/03/20 03:52:38;;;;;;;;;;;;;;;20.56;54.25;100894.25;2303783;75;51660;-81
2023/03/20 03:55:41;;;;;;;;;;;;;;;20.53;54.31;100898.63;2261418;78;52669;-81
2023/03/20 03:58:45;;;;;;;;;;;;;;;20.53;54.40;100899.98;2332798;76;51504;-81
2023/03/20 04:01:49;;;;;;;;;;;;;;;20.59;54.32;100892.52;2370007;74;50805;-81
2023/03/20 04:04:53;;;;;;;;;;;;;;;20.66;54.15;100897.45;2375438;74;22790;-79
2023/03/20 04:07:55;;;;;;;;;;;;;;;20.68;54.05;100891.05;2341602;75;21983;-81
2023/03/20 04:10:57;;;;;;;;;;;;;;;20.65;54.02;100880.16;2340833;76;50973;-82
2023/03/20 04:14:03;;;;;;;;;;;;;;;20.63;54.03;100889.78;2341829;75;50747;-82
2023/03/20 04:17:05;;;;;;;;;;;;;;;20.61;54.07;100899.88;2339827;76;22319;-82
2023/03/20 04:20:09;;;;;;;;;;;;;;;20.60;54.10;100902.75;2332638;76;51856;-81
2023/03/20 04:23:30;;;;;;;;;;;;;;;20.57;54.15;100901.27;2339170;76;50823;-81
2023/03/20 04:26:31;;;;;;;;;;;;;;;20.55;54.18;100907.38;2338578;76;22369;-81
2023/03/20 04:29:35;;;;;;;;;;;;;;;20.53;54.24;100913.94;2338804;76;51424;-80
2023/03/20 04:32:39;;;;;;;;;;;;;;;20.53;54.35;100920.14;2307688;76;22362;-80
2023/03/20 04:35:44;;;;;;;;;;;;;;;20.59;54.24;100923.95;2348375;74;51496;-80
2023/03/20 04:38:47;;;;;;;;;;;;;;;20.64;54.08;100927.73;2331954;76;52247;-81
2023/03/20 04:41:53;;;;;;;;;;;;;;;20.68;53.93;100923.31;2339021;76;50398;-82
2023/03/20 04:44:56;;;;;;;;;;;;;;;20.66;53.93;100923.00;2339297;76;22296;-81
2023/03/20 04:48:01;;;;;;;;;;;;;;;20.64;53.95;100920.18;2331837;76;22477;-80
2023/03/20 04:51:02;;;;;;;;;;;;;;;20.62;53.99;100921.70;2332422;75;22275;-80
2023/03/20 04:54:05;;;;;;;;;;;;;;;20.60;54.02;100926.46;2331709;76;51860;-81
2023/03/20 04:57:06;;;;;;;;;;;;;;;20.58;54.06;100917.75;2303748;76;52481;-80
2023/03/20 05:00:08;;;;;;;;;;;;;;;20.56;54.08;100923.81;2329797;76;51501;-80
2023/03/20 05:03:10;;;;;;;;;;;;;;;20.54;54.13;100922.31;2336525;74;51788;-81
2023/03/20 05:06:15;;;;;;;;;;;;;;;20.53;54.24;100926.03;2342400;74;50714;-82
2023/03/20 05:09:19;;;;;;;;;;;;;;;20.56;54.17;100925.16;2338855;75;22245;-80
2023/03/20 05:12:21;;;;;;;;;;;;;;;20.62;54.04;100927.59;2338913;76;50312;-80
2023/03/20 05:15:25;;;;;;;;;;;;;;;20.65;53.90;100929.41;2338660;76;51562;-81
2023/03/20 05:18:26;;;;;;;;;;;;;;;20.64;53.85;100925.56;2338324;76;51299;-80
2023/03/20 05:21:32;;;;;;;;;;;;;;;20.62;53.86;100922.22;2332839;76;51669;-81
2023/03/20 05:24:34;;;;;;;;;;;;;;;20.61;53.90;100932.66;2338605;76;51471;-79
2023/03/20 05:27:37;;;;;;;;;;;;;;;20.60;53.94;100929.15;2307026;76;50959;-81
2023/03/20 05:30:38;;;;;;;;;;;;;;;20.57;53.95;100926.81;2337663;76;51673;-79
2023/03/20 05:33:40;;;;;;;;;;;;;;;20.54;53.98;100928.55;2282492;74;52555;-81
2023/03/20 05:36:43;;;;;;;;;;;;;;;20.52;54.02;100924.34;2361545;74;50958;-79
2023/03/20 05:39:45;;;;;;;;;;;;;;;20.53;54.13;100926.03;2338262;76;50611;-79
2023/03/20 05:42:48;;;;;;;;;;;;;;;20.56;54.04;100929.71;2371022;74;51485;-80
2023/03/20 05:45:49;;;;;;;;;;;;;;;20.62;53.94;100929.77;2336748;74;50965;-80
2023/03/20 05:48:54;;;;;;;;;;;;;;;20.67;53.73;100930.55;2342535;74;50891;-80
2023/03/20 05:51:55;;;;;;;;;;;;;;;20.68;53.63;100929.55;2357252;74;22481;-82
2023/03/20 05:54:58;;;;;;;;;;;;;;;20.68;53.61;100927.34;2344379;74;51529;-81
2023/03/20 05:58:00;;;;;;;;;;;;;;;20.65;53.58;100932.59;2328132;74;50776;-81
2023/03/20 06:01:07;;;;;;;;;;;;;;;20.62;53.64;100927.08;2343788;74;51543;-81
2023/03/20 06:04:12;;;;;;;;;;;;;;;20.60;53.65;100929.64;2369903;74;50938;-81
2023/03/20 06:07:15;;;;;;;;;;;;;;;20.58;53.71;100937.91;2360788;74;22293;-80
2023/03/20 06:10:19;;;;;;;;;;;;;;;20.54;53.79;100941.98;2338687;74;50425;-81
2023/03/20 06:13:20;;;;;;;;;;;;;;;20.51;53.94;100942.34;2328391;74;22653;-81
2023/03/20 06:16:22;;;;;;;;;;;;;;;20.55;53.94;100945.02;2374682;74;50747;-80
2023/03/20 06:19:24;;;;;;;;;;;;;;;20.61;53.82;100951.48;2365858;73;50488;-81
2023/03/20 06:22:28;;;;;;;;;;;;;;;20.64;53.65;100956.48;2333525;74;51723;-82
2023/03/20 06:25:32;;;;;;;;;;;;;;;20.65;53.56;100959.48;2358932;74;22275;-81
2023/03/20 06:28:33;;;;;;;;;;;;;;;20.62;53.59;100966.06;2333039;74;23555;-81
2023/03/20 06:31:35;;;;;;;;;;;;;;;20.62;53.56;100972.78;2348250;74;50756;-80
2023/03/20 06:34:38;;;;;;;;;;;;;;;20.61;53.55;100975.16;2316143;74;51485;-81
2023/03/20 06:37:40;;;;;;;;;;;;;;;20.58;53.61;100977.41;2316417;76;22247;-79
2023/03/20 06:40:44;;;;;;;;;;;;;;;20.54;53.64;100979.63;2338779;76;51516;-80
2023/03/20 06:43:48;;;;;;;;;;;;;;;20.50;53.70;100985.52;2378976;74;50598;-80
2023/03/20 06:46:50;;;;;;;;;;;;;;;20.49;53.89;100987.38;2380270;74;50776;-81
2023/03/20 06:49:52;;;;;;;;;;;;;;;20.53;53.86;100988.69;2314502;74;50177;-80
2023/03/20 06:52:56;;;;;;;;;;;;;;;20.59;53.75;100995.20;2346793;74;50115;-81
2023/03/20 06:56:00;;;;;;;;;;;;;;;20.65;53.52;101006.05;2342330;74;50749;-82
2023/03/20 06:59:02;;;;;;;;;;;;;;;20.66;53.42;101000.98;2367649;74;22430;-81
2023/03/20 07:02:04;;;;;;;;;;;;;;;20.66;53.38;101007.70;2329938;74;50969;-81
2023/03/20 07:05:06;;;;;;;;;;;;;;;20.63;53.44;101012.11;2347042;74;51496;-81
2023/03/20 07:08:08;;;;;;;;;;;;;;;20.61;53.47;101008.77;2369452;73;50735;-81
2023/03/20 07:11:14;;;;;;;;;;;;;;;20.59;53.47;101009.98;2352152;74;51527;-81
2023/03/20 07:14:19;;;;;;;;;;;;;;;20.56;53.49;101016.56;2351459;73;22532;-81
2023/03/20 07:17:22;;;;;;;;;;;;;;;20.53;53.53;101022.30;2310694;76;22157;-80
2023/03/20 07:20:23;;;;;;;;;;;;;;;20.52;53.64;101015.23;2372605;73;51329;-81
2023/03/20 07:23:26;;;;;;;;;;;;;;;20.53;53.73;101020.95;2308555;76;50688;-81
2023/03/20 07:26:31;;;;;;;;;;;;;;;20.59;53.61;101021.56;2339784;73;51530;-81
2023/03/20 07:29:36;;;;;;;;;;;;;;;20.64;53.41;101019.15;2358525;74;50423;-80
2023/03/20 07:32:47;;;;;;;;;;;;;;;20.63;53.33;101010.77;2350350;73;22351;-80
2023/03/20 07:35:51;;;;;;;;;;;;;;;20.62;53.36;101014.98;2338474;73;50248;-81
2023/03/20 07:38:53;;;;;;;;;;;;;;;20.61;53.38;101022.73;2351232;74;50368;-80
2023/03/20 07:42:00;;;;;;;;;;;;;;;20.58;53.41;101029.32;2311005;75;49950;-79
2023/03/20 07:45:01;;;;;;;;;;;;;;;20.54;53.49;101037.42;2360484;74;22441;-80
2023/03/20 07:48:06;;;;;;;;;;;;;;;20.51;53.48;101036.42;2345562;74;22367;-80
2023/03/20 07:51:10;;;;;;;;;;;;;;;20.48;53.52;101036.80;2311521;76;52335;-80
2023/03/20 07:54:14;;;;;;;;;;;;;;;20.49;53.68;101045.70;2339825;74;22464;-80
2023/03/20 07:57:17;;;;;;;;;;;;;;;20.56;53.96;101042.11;2376110;73;22360;-81
2023/03/20 08:00:22;;;;;;;;;;;;;;;20.61;54.27;101035.66;2365840;73;51038;-81
2023/03/20 08:03:24;;;;;;;;;;;;;;;20.67;54.38;101036.77;2351334;74;51423;-80
2023/03/20 08:06:29;;;;;;;;;;;;;;;20.73;54.41;101031.14;2332339;76;50459;-80
2023/03/20 08:09:30;;;;;;;;;;;;;;;20.73;54.50;101032.00;2345087;73;50753;-80
2023/03/20 08:12:37;;;;;;;;;;;;;;;20.71;54.52;101035.38;2312276;76;50605;-80
2023/03/20 08:15:44;;;;;;;;;;;;;;;20.67;54.56;101036.77;2343971;73;22396;-80
2023/03/20 08:18:46;;;;;;;;;;;;;;;20.65;54.47;101049.06;2346132;74;50483;-80
2023/03/20 08:21:50;;;;;;;;;;;;;;;20.64;54.46;101047.37;2320589;74;52366;-82
2023/03/20 08:24:55;;;;;;;;;;;;;;;20.61;54.43;101055.00;2371963;73;50332;-82
2023/03/20 08:27:57;;;;;;;;;;;;;;;20.57;54.51;101053.17;2345762;73;22426;-80
2023/03/20 08:31:01;;;;;;;;;;;;;;;20.58;54.55;101065.61;2335473;74;50069;-81
2023/03/20 08:34:04;;;;;;;;;;;;;;;20.64;54.39;101064.86;2358562;73;51415;-81
2023/03/20 08:37:07;;;;;;;;;;;;;;;20.68;54.20;101072.06;2351513;73;50662;-81
2023/03/20 08:40:09;;;;;;;;;;;;;;;20.70;54.09;101071.85;2342730;74;50223;-81
2023/03/20 08:43:15;;;;;;;;;;;;;;;20.69;54.05;101068.85;2332476;74;49462;-82
2023/03/20 08:46:16;;;;;;;;;;;;;;;20.66;54.03;101070.89;2379270;74;50804;-82
2023/03/20 08:49:21;;;;;;;;;;;;;;;20.65;54.00;101066.55;2370715;72;22381;-82
2023/03/20 08:52:26;;;;;;;;;;;;;;;20.63;54.04;101069.92;2336582;75;22710;-81
2023/03/20 08:58:32;;;;;;;;;;;;;;;20.60;54.15;101070.30;2174918;80;23180;-81
2023/03/20 09:01:37;;;;;;;;;;;;;;;20.61;54.20;101075.99;2174870;80;50918;-79
2023/03/20 09:04:44;;;;;;;;;;;;;;;20.65;54.17;101077.30;2171418;82;50207;-81
2023/03/20 09:07:46;;;;;;;;;;;;;;;20.73;53.96;101068.78;2171120;82;22626;-80
2023/03/20 09:10:50;;;;;;;;;;;;;;;20.73;53.86;101067.44;2170835;80;50670;-81
2023/03/20 09:13:54;;;;;;;;;;;;;;;20.71;53.85;101066.81;2199958;80;50804;-81
2023/03/20 09:16:57;;;;;;;;;;;;;;;20.70;53.82;101064.61;2173671;80;51646;-81
2023/03/20 09:27:39;;;;;;;;;;;;;;;20.62;53.94;101078.99;2170361;80;22574;-81
2023/03/20 09:34:17;;;;;;;;;;;;;;;20.58;54.10;101075.02;2168630;82;22437;-81
2023/03/20 09:37:21;;;;;;;;;;;;;;;20.62;54.01;101072.27;2329255;76;51561;-81
2023/03/20 09:40:27;;;;;;;;;;;;;;;20.69;53.87;101076.41;2335071;75;50942;-81
2023/03/20 09:43:35;;;;;;;;;;;;;;;20.73;53.74;101079.54;2334275;76;22302;-81
2023/03/20 09:46:41;;;;;;;;;;;;;;;20.72;53.71;101076.54;2333790;76;50905;-81
2023/03/20 09:50:01;;;;;;;;;;;;;;;20.71;53.70;101066.81;2334706;75;51495;-81
2023/03/20 09:53:12;;;;;;;;;;;;;;;20.69;53.71;101069.69;2334535;76;51264;-81
2023/03/20 09:56:20;;;;;;;;;;;;;;;20.68;53.78;101066.68;2302365;76;51213;-81
2023/03/20 09:59:26;;;;;;;;;;;;;;;20.64;53.78;101070.23;2333670;76;22317;-81
2023/03/20 10:02:39;;;;;;;;;;;;;;;20.61;53.83;101074.64;2333775;76;50798;-81
2023/03/20 10:05:44;;;;;;;;;;;;;;;20.59;53.90;101069.12;2331227;76;51595;-81
2023/03/20 10:08:49;;;;;;;;;;;;;;;20.62;53.96;101077.64;2304369;76;51292;-81
2023/03/20 10:15:23;;;;;;;;;;;;;;;20.69;53.70;101087.16;2369495;75;22434;-81
2023/03/20 10:18:34;;;;;;;;;;;;;;;20.68;53.67;101083.30;2368263;75;51582;-81
2023/03/20 10:21:43;;;;;;;;;;;;;;;20.64;53.69;101082.33;2340501;75;23283;-80
2023/03/20 10:24:51;;;;;;;;;;;;;;;20.63;53.72;101081.19;2328759;76;51124;-81
2023/03/20 10:27:54;;;;;;;;;;;;;;;20.59;53.77;101074.51;2328746;76;50541;-81
2023/03/20 10:31:01;;;;;;;;;;;;;;;20.57;53.81;101084.09;2325294;75;50482;-80
2023/03/20 10:34:05;;;;;;;;;;;;;;;20.54;53.84;101075.55;2299376;76;51562;-81
2023/03/20 10:37:28;;;;;;;;;;;;;;;20.51;53.90;101075.92;2306382;76;50467;-80
2023/03/20 10:40:35;;;;;;;;;;;;;;;20.52;54.02;101071.69;2288659;76;22760;-81
2023/03/20 10:43:41;;;;;;;;;;;;;;;20.60;53.88;101070.30;2289774;76;50804;-81
2023/03/20 10:46:49;;;;;;;;;;;;;;;20.66;53.69;101067.37;2289858;77;22333;-81
2023/03/20 10:49:58;;;;;;;;;;;;;;;20.66;53.59;101063.34;2289201;77;51886;-81
2023/03/20 10:53:01;;;;;;;;;;;;;;;20.65;53.58;101065.20;2287777;76;51482;-80
2023/03/20 10:56:06;;;;;;;;;;;;;;;20.63;53.59;101073.95;2292432;76;50954;-80
2023/03/20 10:59:14;;;;;;;;;;;;;;;20.60;53.66;101070.30;2328248;75;22415;-80
2023/03/20 11:02:16;;;;;;;;;;;;;;;20.57;53.68;101069.30;2315464;75;22939;-81
2023/03/20 11:16:22;;;;;;;;;;;;;;;20.57;53.75;101067.13;2314869;76;22374;-80
2023/03/20 11:19:26;;;;;;;;;;;;;;;20.64;53.55;101060.82;2321382;75;22224;-79
2023/03/20 11:22:30;;;;;;;;;;;;;;;20.66;53.41;101065.52;2315190;76;50448;-81
2023/03/20 11:25:35;;;;;;;;;;;;;;;20.64;53.41;101054.10;2300654;76;49689;-80
2023/03/20 11:28:37;;;;;;;;;;;;;;;20.65;53.38;101057.13;2328495;76;22414;-83
2023/03/20 11:35:27;;;;;;;;;;;;;;;20.61;53.44;101059.86;2327566;76;22293;-81
2023/03/20 11:38:31;;;;;;;;;;;;;;;20.56;53.50;101056.89;2305416;76;51498;-80
2023/03/20 11:41:36;;;;;;;;;;;;;;;20.54;53.50;101055.38;2327435;76;50776;-81
2023/03/20 11:44:41;;;;;;;;;;;;;;;20.54;53.58;101052.69;2324843;76;22369;-80
2023/03/20 11:51:25;;;;;;;;;;;;;;;20.66;53.38;101045.34;2314649;75;22509;-81
2023/03/20 11:54:27;;;;;;;;;;;;;;;20.71;53.23;101038.58;2288656;76;22471;-80
2023/03/20 11:57:39;;;;;;;;;;;;;;;20.70;53.19;101043.62;2288507;77;51495;-79
2023/03/20 12:00:41;;;;;;;;;;;;;;;20.66;53.24;101030.55;2289375;76;22958;-79
2023/03/20 12:03:44;;;;;;;;;;;;;;;20.63;53.28;101032.28;2268166;77;51287;-80
2023/03/20 12:07:09;;;;;;;;;;;;;;;20.59;53.36;101025.59;2289636;76;50334;-81
2023/03/20 12:10:12;;;;;;;;;;;;;;;20.56;53.36;101027.32;2288291;76;22586;-80
2023/03/20 12:13:17;;;;;;;;;;;;;;;20.53;53.43;101027.67;2289429;77;51258;-81
2023/03/20 12:16:20;;;;;;;;;;;;;;;20.53;53.47;101022.81;2267873;77;52445;-81
2023/03/20 12:19:24;;;;;;;;;;;;;;;20.53;53.54;101023.63;2311666;76;52222;-81
2023/03/20 12:22:29;;;;;;;;;;;;;;;20.61;53.41;101020.88;2327953;76;23053;-82
2023/03/20 12:25:32;;;;;;;;;;;;;;;20.69;53.21;101019.11;2328606;76;50449;-82
2023/03/20 12:28:44;;;;;;;;;;;;;;;20.72;53.07;101012.00;2303921;76;51797;-81
2023/03/20 12:31:50;;;;;;;;;;;;;;;20.71;53.09;101015.20;2305837;76;51597;-80
2023/03/20 12:34:54;;;;;;;;;;;;;;;20.70;53.03;101007.31;2328471;76;50839;-82
2023/03/20 12:37:56;;;;;;;;;;;;;;;20.69;53.05;101006.48;2328248;76;52406;-81
2023/03/20 12:41:02;;;;;;;;;;;;;;;20.64;53.09;100997.64;2327585;76;50784;-81
2023/03/20 12:44:05;;;;;;;;;;;;;;;20.61;53.13;100998.02;2327936;76;22333;-81
2023/03/20 12:47:15;;;;;;;;;;;;;;;20.58;53.18;100991.68;2328257;76;50954;-79
2023/03/20 12:50:28;;;;;;;;;;;;;;;20.57;53.29;100995.89;2316779;76;50975;-82
2023/03/20 12:53:36;;;;;;;;;;;;;;;20.60;53.29;100990.98;2305599;76;52520;-80
2023/03/20 12:56:53;;;;;;;;;;;;;;;20.68;53.18;100999.94;2327954;76;50361;-82
2023/03/20 13:00:05;;;;;;;;;;;;;;;20.71;52.99;100994.21;2288353;77;22906;-82
2023/03/20 13:03:14;;;;;;;;;;;;;;;20.71;52.93;100991.52;2288072;77;51945;-80
2023/03/20 13:06:39;;;;;;;;;;;;;;;20.70;52.94;100993.36;2249339;77;51334;-81
2023/03/20 13:09:58;;;;;;;;;;;;;;;20.66;52.96;100986.19;2287301;77;51486;-80
2023/03/20 13:13:03;;;;;;;;;;;;;;;20.64;52.98;100982.02;2288524;77;50827;-81
2023/03/20 13:16:07;;;;;;;;;;;;;;;20.61;53.00;100981.89;2288077;77;22500;-81
2023/03/20 13:19:15;;;;;;;;;;;;;;;20.57;53.05;100991.86;2260303;77;52596;-82
2023/03/20 13:22:29;;;;;;;;;;;;;;;20.56;53.07;100990.20;2288307;77;50902;-81
2023/03/20 13:25:32;;;;;;;;;;;;;;;20.55;53.16;100984.00;2287517;77;50808;-80
2023/03/20 13:28:41;;;;;;;;;;;;;;;20.60;53.09;100974.86;2288213;77;50426;-81
2023/03/20 13:31:47;;;;;;;;;;;;;;;20.69;52.91;100982.29;2259725;77;50242;-80
2023/03/20 13:34:50;;;;;;;;;;;;;;;20.73;52.73;100975.52;2278000;77;50953;-80
2023/03/20 13:37:54;;;;;;;;;;;;;;;20.73;52.69;100967.94;2318519;76;52107;-79
2023/03/20 13:44:35;;;;;;;;;;;;;;;20.71;52.67;100964.63;2326591;75;22361;-81
2023/03/20 13:47:36;;;;;;;;;;;;;;;20.66;52.72;100961.98;2327966;76;50441;-81
2023/03/20 13:50:45;;;;;;;;;;;;;;;20.64;52.74;100963.20;2327636;76;50827;-81
2023/03/20 13:53:51;;;;;;;;;;;;;;;20.62;52.75;100961.20;2328277;76;22415;-81
2023/03/20 13:56:59;;;;;;;;;;;;;;;20.60;52.81;100957.38;2327249;76;22373;-81
2023/03/20 14:00:07;;;;;;;;;;;;;;;20.62;52.85;100960.69;2327690;76;51054;-80
2023/03/20 14:03:27;;;;;;;;;;;;;;;20.68;52.73;100964.98;2328419;76;22413;-81
2023/03/20 14:06:33;;;;;;;;;;;;;;;20.72;52.56;100963.59;2302556;76;22376;-81
2023/03/20 14:09:39;;;;;;;;;;;;;;;20.71;52.52;100961.43;2289400;76;52239;-80
2023/03/20 14:12:42;;;;;;;;;;;;;;;20.70;52.53;100965.64;2289438;77;50029;-81
2023/03/20 14:15:47;;;;;;;;;;;;;;;20.68;52.56;100962.30;2289193;76;51678;-81
2023/03/20 14:18:51;;;;;;;;;;;;;;;20.62;52.63;100960.69;2288337;77;50972;-81
2023/03/20 14:21:55;;;;;;;;;;;;;;;20.61;52.63;100958.20;2265863;77;51793;-80
2023/03/20 14:24:58;;;;;;;;;;;;;;;20.56;52.66;100958.77;2288243;76;51471;-81
2023/03/20 14:28:16;;;;;;;;;;;;;;;20.55;52.69;100954.91;2289168;77;51629;-80
2023/03/20 14:31:25;;;;;;;;;;;;;;;20.54;52.79;100950.53;2289421;77;50470;-80
2023/03/20 14:34:28;;;;;;;;;;;;;;;20.58;52.72;100956.73;2268032;77;50699;-81
2023/03/20 14:37:58;;;;;;;;;;;;;;;20.65;52.57;100960.34;2301452;75;51449;-80
2023/03/20 14:41:06;;;;;;;;;;;;;;;20.70;52.41;100954.88;2288280;77;22368;-80
2023/03/20 14:44:27;;;;;;;;;;;;;;;20.71;52.33;100953.88;2323562;76;50443;-81
2023/03/20 14:47:33;;;;;;;;;;;;;;;20.69;52.34;100955.41;2328399;76;22264;-81
2023/03/20 14:50:42;;;;;;;;;;;;;;;20.64;52.39;100949.76;2303773;76;49646;-81
2023/03/20 14:53:48;;;;;;;;;;;;;;;20.61;52.45;100948.28;2326722;76;50354;-82
2023/03/20 14:56:51;;;;;;;;;;;;;;;20.59;52.50;100948.97;2309981;76;50460;-81
2023/03/20 14:59:56;;;;;;;;;;;;;;;20.56;52.54;100950.70;2327865;75;51064;-80
2023/03/20 15:03:11;;;;;;;;;;;;;;;20.53;52.56;100943.50;2328394;76;51514;-81
2023/03/20 15:06:16;;;;;;;;;;;;;;;20.54;52.66;100943.33;2314323;76;21713;-80
2023/03/20 15:09:19;;;;;;;;;;;;;;;20.59;52.57;100942.25;2325549;75;23123;-80
2023/03/20 15:12:28;;;;;;;;;;;;;;;20.65;52.43;100937.48;2326589;75;51432;-82
2023/03/20 15:15:32;;;;;;;;;;;;;;;20.70;52.27;100934.20;2328076;75;51570;-81
2023/03/20 15:18:40;;;;;;;;;;;;;;;20.69;52.24;100935.75;2327845;76;50405;-82
2023/03/20 15:21:42;;;;;;;;;;;;;;;20.65;52.29;100936.62;2328372;75;22352;-82
2023/03/20 15:24:45;;;;;;;;;;;;;;;20.64;52.31;100926.91;2281396;76;51042;-81
2023/03/20 15:27:50;;;;;;;;;;;;;;;20.62;52.34;100924.39;2324899;75;50465;-81
2023/03/20 15:30:55;;;;;;;;;;;;;;;20.58;52.38;100919.09;2315014;76;22377;-81
2023/03/20 15:34:03;;;;;;;;;;;;;;;20.56;52.43;100922.47;2328537;76;22339;-81
2023/03/20 15:37:07;;;;;;;;;;;;;;;20.55;52.45;100914.59;2328360;76;22409;-81
2023/03/20 15:40:16;;;;;;;;;;;;;;;20.56;52.49;100918.44;2328071;76;22456;-82
2023/03/20 15:43:19;;;;;;;;;;;;;;;20.62;52.44;100924.39;2328145;76;50746;-82
2023/03/20 15:46:35;;;;;;;;;;;;;;;20.65;52.27;100925.38;2328368;76;51554;-81
2023/03/20 15:49:41;;;;;;;;;;;;;;;20.65;52.21;100921.84;2286101;77;22514;-80
2023/03/20 15:52:51;;;;;;;;;;;;;;;20.62;52.25;100927.59;2262548;77;50268;-81
2023/03/20 15:55:49;;;;;;;;;;;;;;;20.61;52.24;100921.91;2287390;77;23215;-80
2023/03/20 15:58:51;;;;;;;;;;;;;;;20.56;52.29;100915.75;2276673;77;50225;-81
2023/03/20 16:01:55;;;;;;;;;;;;;;;20.55;52.33;100922.65;2282014;77;22569;-80
2023/03/20 16:04:58;;;;;;;;;;;;;;;20.53;52.36;100932.23;2288348;77;50429;-80
2023/03/20 16:08:01;;;;;;;;;;;;;;;20.51;52.40;100933.45;2275596;77;50213;-80
2023/03/20 16:11:09;;;;;;;;;;;;;;;20.50;52.51;100936.66;2280040;77;23294;-80
2023/03/20 16:14:11;;;;;;;;;;;;;;;20.54;52.55;100939.30;2284438;77;23049;-80
2023/03/20 16:20:53;;;;;;;;;;;;;;;20.62;52.28;100939.70;2261286;77;22334;-78
2023/03/20 16:23:55;;;;;;;;;;;;;;;20.62;52.33;100943.73;2261496;77;50770;-80
2023/03/20 16:26:58;;;;;;;;;;;;;;;20.59;52.65;100942.25;2281071;76;50668;-78
2023/03/20 16:30:02;;;;;;;;;;;;;;;20.59;53.58;100943.59;2315200;76;50796;-80
2023/03/20 16:33:08;;;;;;;;;;;;;;;20.57;53.73;100942.95;2328440;75;51357;-76
2023/03/20 16:36:19;;;;;;;;;;;;;;;20.58;53.85;100943.80;2306783;76;50770;-80
2023/03/20 16:39:25;;;;;;;;;;;;;;;20.57;53.89;100938.91;2309695;75;51601;-78
2023/03/20 16:42:28;;;;;;;;;;;;;;;20.56;54.22;100938.60;2328307;75;22296;-76